createdAt,value
2022-12-29T00:24:25.432Z,5.7
2022-12-29T00:54:13.973Z,5.2
2022-12-29T01:24:14.412Z,3.7
2022-12-29T01:54:17.645Z,4.9
2022-12-29T02:24:23.195Z,4.7
2022-12-29T02:54:27.662Z,5.3
2022-12-29T03:24:17.213Z,4.3
2022-12-29T03:54:17.472Z,11.3
2022-12-29T04:24:17.869Z,7.3
2022-12-29T04:54:18.334Z,10.4
2022-12-29T05:24:19.134Z,9.2
2022-12-29T05:54:19.182Z,12.4
2022-12-29T06:24:19.753Z,11.2
2022-12-29T06:54:20.032Z,12.9
2022-12-29T07:24:20.556Z,14.5
2022-12-29T07:54:23.271Z,12.1
2022-12-29T08:24:21.921Z,13.6
2022-12-29T08:54:22.196Z,9.3
2022-12-29T09:24:22.662Z,12.1
2022-12-29T09:54:32.584Z,21
2022-12-29T10:24:23.795Z,19.5
2022-12-29T10:54:26.200Z,18
2022-12-29T11:24:29.121Z,10.8
2022-12-29T11:54:27.511Z,9.4
2022-12-29T12:24:39.635Z,12.8
2022-12-29T12:54:37.721Z,9.2
2022-12-29T13:24:29.997Z,10.5
2022-12-29T13:54:33.483Z,7
2022-12-29T14:24:39.668Z,8.3
2022-12-29T14:54:49.968Z,13.1
2022-12-29T15:24:28.553Z,12.8
2022-12-29T15:54:36.700Z,11.6
2022-12-29T16:24:30.684Z,12.4
2022-12-29T16:54:33.363Z,13.4
2022-12-29T17:24:30.770Z,10.3
2022-12-29T17:54:31.328Z,15.9
2022-12-29T18:24:31.720Z,12.6
2022-12-29T18:54:33.670Z,14.5
2022-12-29T19:24:32.645Z,17.2
2022-12-29T19:54:33.402Z,12.5
2022-12-29T20:24:33.628Z,15.7
2022-12-29T20:54:39.495Z,11.2
2022-12-29T21:24:34.337Z,16.6
2022-12-29T21:54:46.046Z,11.5
2022-12-29T22:24:35.378Z,9.6
2022-12-29T22:54:35.673Z,8.5
2022-12-29T23:24:35.879Z,13.5
2022-12-29T23:54:36.118Z,14
